createdAt,value
2023-03-12T00:02:05.540Z,0.40
2023-03-12T00:04:32.999Z,0.40
2023-03-12T00:06:59.843Z,0.30
2023-03-12T00:09:26.787Z,0.30
2023-03-12T00:11:53.622Z,0.30
2023-03-12T00:14:20.638Z,0.30
2023-03-12T00:16:47.475Z,0.30
2023-03-12T00:19:14.373Z,0.30
2023-03-12T00:21:41.166Z,0.40
2023-03-12T00:24:08.656Z,0.30
2023-03-12T00:26:35.473Z,0.30
2023-03-12T00:29:02.422Z,0.40
2023-03-12T00:31:31.661Z,0.40
2023-03-12T00:33:59.872Z,0.30
2023-03-12T00:36:29.137Z,0.30
2023-03-12T00:38:57.049Z,0.30
2023-03-12T00:41:24.941Z,0.30
2023-03-12T00:43:52.405Z,0.30
2023-03-12T00:46:20.582Z,0.30
2023-03-12T00:48:47.832Z,0.30
2023-03-12T00:51:14.665Z,0.30
2023-03-12T00:53:41.753Z,0.30
2023-03-12T00:56:09.015Z,0.30
2023-03-12T00:58:35.807Z,0.30
2023-03-12T01:01:03.472Z,0.30
2023-03-12T01:03:30.558Z,0.30
2023-03-12T01:05:57.332Z,0.40
2023-03-12T01:08:25.224Z,0.40
2023-03-12T01:10:52.801Z,0.40
2023-03-12T01:13:19.905Z,0.50
2023-03-12T01:15:46.674Z,0.50
2023-03-12T01:18:14.096Z,0.50
2023-03-12T01:20:41.079Z,0.50
2023-03-12T01:23:09.098Z,0.50
2023-03-12T01:25:36.893Z,0.60
2023-03-12T01:28:04.211Z,0.50
2023-03-12T01:30:31.064Z,0.60
2023-03-12T01:32:58.020Z,0.60
2023-03-12T01:35:25.304Z,0.60
2023-03-12T01:37:52.244Z,0.60
2023-03-12T01:40:22.464Z,0.60
2023-03-12T01:42:54.068Z,0.60
2023-03-12T01:45:58.457Z,0.60
2023-03-12T01:48:27.325Z,0.70
2023-03-12T01:50:54.136Z,0.70
2023-03-12T01:53:21.603Z,0.70
2023-03-12T01:55:48.773Z,0.70
2023-03-12T01:58:15.748Z,0.80
2023-03-12T02:00:42.850Z,0.80
2023-03-12T02:03:10.959Z,0.80
2023-03-12T02:05:50.118Z,0.80
2023-03-12T02:08:17.788Z,0.80
2023-03-12T02:10:45.646Z,0.80
2023-03-12T02:13:13.009Z,0.80
2023-03-12T02:15:40.416Z,0.80
2023-03-12T02:18:11.031Z,0.80
2023-03-12T02:20:57.085Z,0.80
2023-03-12T02:23:34.109Z,0.80
2023-03-12T02:26:04.030Z,0.80
2023-03-12T02:28:33.840Z,0.90
2023-03-12T02:31:05.129Z,0.80
2023-03-12T02:33:31.974Z,0.80
2023-03-12T02:35:58.919Z,0.80
2023-03-12T02:38:45.421Z,0.80
2023-03-12T02:41:22.822Z,0.70
2023-03-12T02:43:58.359Z,0.70
2023-03-12T02:46:25.749Z,0.60
2023-03-12T02:48:53.574Z,0.60
2023-03-12T02:51:20.389Z,0.50
2023-03-12T02:53:47.159Z,0.40
2023-03-12T02:56:14.360Z,0.40
2023-03-12T02:58:41.187Z,0.40
2023-03-12T03:01:08.174Z,0.40
2023-03-12T03:03:34.987Z,0.30
2023-03-12T03:06:01.796Z,0.40
2023-03-12T03:08:28.519Z,0.30
2023-03-12T03:10:55.279Z,0.30
2023-03-12T03:13:25.220Z,0.30
2023-03-12T03:15:52.230Z,0.20
2023-03-12T03:18:19.107Z,0.10
2023-03-12T03:20:45.857Z,0.10
2023-03-12T03:23:12.608Z,0.10
2023-03-12T03:25:39.438Z,0.00
2023-03-12T03:28:06.236Z,0.00
2023-03-12T03:30:32.973Z,0.00
2023-03-12T03:32:59.725Z,0.00
2023-03-12T03:35:26.577Z,0.00
2023-03-12T03:37:53.340Z,0.00
2023-03-12T03:40:20.366Z,-0.10
2023-03-12T03:42:47.174Z,-0.10
2023-03-12T03:45:14.010Z,-0.10
2023-03-12T03:47:40.958Z,-0.20
2023-03-12T03:50:08.170Z,-0.20
2023-03-12T03:52:35.049Z,-0.20
2023-03-12T03:55:01.895Z,-0.20
2023-03-12T03:57:29.355Z,-0.30
2023-03-12T03:59:56.751Z,-0.20
2023-03-12T04:02:23.482Z,-0.30
2023-03-12T04:04:50.229Z,-0.20
2023-03-12T04:07:17.227Z,-0.30
2023-03-12T04:09:44.485Z,-0.30
2023-03-12T04:12:11.449Z,-0.30
2023-03-12T04:14:40.721Z,-0.30
2023-03-12T04:17:08.140Z,-0.30
2023-03-12T04:19:35.289Z,-0.30
2023-03-12T04:22:02.276Z,-0.40
2023-03-12T04:24:29.118Z,-0.40
2023-03-12T04:26:56.674Z,-0.30
2023-03-12T04:29:23.465Z,-0.40
2023-03-12T04:31:50.207Z,-0.40
2023-03-12T04:34:17.412Z,-0.40
2023-03-12T04:36:44.732Z,-0.40
2023-03-12T04:39:11.701Z,-0.40
2023-03-12T04:41:38.855Z,-0.50
2023-03-12T04:44:05.713Z,-0.40
2023-03-12T04:46:32.478Z,-0.40
2023-03-12T04:48:59.329Z,-0.50
2023-03-12T04:51:26.078Z,-0.50
2023-03-12T04:53:52.862Z,-0.50
2023-03-12T04:56:19.679Z,-0.50
2023-03-12T04:58:49.517Z,-0.50
2023-03-12T05:01:36.721Z,-0.50
2023-03-12T05:04:04.106Z,-0.50
2023-03-12T05:06:31.101Z,-0.50
2023-03-12T05:08:57.886Z,-0.50
2023-03-12T05:11:27.034Z,-0.50
2023-03-12T05:13:54.285Z,-0.60
2023-03-12T05:16:21.101Z,-0.60
2023-03-12T05:18:47.965Z,-0.60
2023-03-12T05:21:18.113Z,-0.60
2023-03-12T05:23:45.843Z,-0.60
2023-03-12T05:26:27.861Z,-0.60
2023-03-12T05:28:55.139Z,-0.60
2023-03-12T05:31:21.962Z,-0.60
2023-03-12T05:33:51.041Z,-0.60
2023-03-12T05:36:19.765Z,-0.60
2023-03-12T05:38:46.839Z,-0.60
2023-03-12T05:41:28.452Z,-0.50
2023-03-12T05:43:56.248Z,-0.50
2023-03-12T05:46:27.292Z,-0.50
2023-03-12T05:48:54.153Z,-0.60
2023-03-12T05:51:23.916Z,-0.60
2023-03-12T05:53:50.791Z,-0.60
2023-03-12T05:56:18.614Z,-0.60
2023-03-12T05:58:48.168Z,-0.60
2023-03-12T06:01:17.820Z,-0.60
2023-03-12T06:03:44.877Z,-0.60
2023-03-12T06:06:11.833Z,-0.60
2023-03-12T06:08:39.709Z,-0.60
2023-03-12T06:11:06.618Z,-0.60
2023-03-12T06:13:33.978Z,-0.60
2023-03-12T06:16:16.352Z,-0.60
2023-03-12T06:18:43.274Z,-0.50
2023-03-12T06:21:11.395Z,-0.50
2023-03-12T06:23:38.754Z,-0.50
2023-03-12T06:26:05.907Z,-0.50
2023-03-12T06:28:33.866Z,-0.50
2023-03-12T06:31:00.916Z,-0.50
2023-03-12T06:33:27.748Z,-0.50
2023-03-12T06:35:56.091Z,-0.40
2023-03-12T06:38:23.345Z,-0.40
2023-03-12T06:40:57.054Z,-0.40
2023-03-12T06:43:25.039Z,-0.40
2023-03-12T06:45:51.823Z,-0.40
2023-03-12T06:48:18.696Z,-0.30
2023-03-12T06:50:45.591Z,-0.30
2023-03-12T06:53:12.351Z,-0.30
2023-03-12T06:55:39.223Z,-0.30
2023-03-12T06:58:06.012Z,-0.30
2023-03-12T07:00:33.106Z,-0.20
2023-03-12T07:02:59.849Z,-0.10
2023-03-12T07:05:28.793Z,-0.10
2023-03-12T07:07:59.317Z,-0.10
2023-03-12T07:10:26.469Z,-0.10
2023-03-12T07:12:53.365Z,0.00
2023-03-12T07:15:20.155Z,0.00
2023-03-12T07:17:47.364Z,0.00
2023-03-12T07:20:14.301Z,0.10
2023-03-12T07:22:43.195Z,0.20
2023-03-12T07:25:10.542Z,0.30
2023-03-12T07:27:37.341Z,0.40
2023-03-12T07:30:04.850Z,0.40
2023-03-12T07:32:31.689Z,0.30
2023-03-12T07:34:58.893Z,0.40
2023-03-12T07:37:25.678Z,0.40
2023-03-12T07:39:52.561Z,0.50
2023-03-12T07:42:19.426Z,0.40
2023-03-12T07:44:46.255Z,0.40
2023-03-12T07:47:23.815Z,0.40
2023-03-12T07:49:51.447Z,0.40
2023-03-12T07:52:18.403Z,0.40
2023-03-12T07:54:45.582Z,0.40
2023-03-12T07:57:12.617Z,0.40
2023-03-12T07:59:39.540Z,0.50
2023-03-12T08:02:06.717Z,0.50
2023-03-12T08:04:33.666Z,0.50
2023-03-12T08:07:01.680Z,0.50
2023-03-12T08:09:28.702Z,0.60
2023-03-12T08:11:58.234Z,0.70
2023-03-12T08:14:25.112Z,0.80
2023-03-12T08:16:54.155Z,0.90
2023-03-12T08:19:20.926Z,1.00
2023-03-12T08:21:47.650Z,1.10
2023-03-12T08:24:14.421Z,1.10
2023-03-12T08:26:41.299Z,1.20
2023-03-12T08:29:08.109Z,1.20
2023-03-12T08:31:34.983Z,1.30
2023-03-12T08:34:01.803Z,1.30
2023-03-12T08:36:28.671Z,1.30
2023-03-12T08:38:55.574Z,1.30
2023-03-12T08:41:22.582Z,1.30
2023-03-12T08:43:49.449Z,1.30
2023-03-12T08:46:16.219Z,1.40
2023-03-12T08:48:43.034Z,1.50
2023-03-12T08:51:09.790Z,1.70
2023-03-12T08:53:37.033Z,1.80
2023-03-12T08:56:05.177Z,1.90
2023-03-12T08:58:32.104Z,1.90
2023-03-12T09:00:58.893Z,2.00
2023-03-12T09:03:26.523Z,2.20
2023-03-12T09:06:07.392Z,2.30
2023-03-12T09:08:34.291Z,2.40
2023-03-12T09:11:01.109Z,2.40
2023-03-12T09:13:40.640Z,2.30
2023-03-12T09:16:14.757Z,2.30
2023-03-12T09:18:41.908Z,2.30
2023-03-12T09:21:08.638Z,2.30
2023-03-12T09:23:35.592Z,2.30
2023-03-12T09:26:02.291Z,2.30
2023-03-12T09:28:29.168Z,2.40
2023-03-12T09:30:55.915Z,2.40
2023-03-12T09:33:22.645Z,2.50
2023-03-12T09:35:59.718Z,2.50
2023-03-12T09:38:26.722Z,2.70
2023-03-12T09:40:54.055Z,2.80
2023-03-12T09:43:37.763Z,3.00
2023-03-12T09:46:23.555Z,3.10
2023-03-12T09:48:51.727Z,3.20
2023-03-12T09:51:24.091Z,3.20
2023-03-12T09:53:57.124Z,3.20
2023-03-12T09:56:26.378Z,3.30
2023-03-12T09:58:53.112Z,3.30
2023-03-12T10:01:41.923Z,3.30
2023-03-12T10:04:37.709Z,3.40
2023-03-12T10:07:41.453Z,3.40
2023-03-12T10:10:19.813Z,3.60
2023-03-12T10:13:14.725Z,3.80
2023-03-12T10:16:18.362Z,4.00
2023-03-12T10:19:00.628Z,4.10
2023-03-12T10:21:55.163Z,4.00
2023-03-12T10:24:34.272Z,4.00
2023-03-12T10:27:01.081Z,4.10
2023-03-12T10:29:34.429Z,4.30
2023-03-12T10:32:13.676Z,4.30
2023-03-12T10:35:14.969Z,4.30
2023-03-12T10:38:05.599Z,4.30
2023-03-12T10:40:36.436Z,4.20
2023-03-12T10:43:04.769Z,4.30
2023-03-12T10:45:47.265Z,4.30
2023-03-12T10:48:40.184Z,4.40
2023-03-12T10:51:12.943Z,4.40
2023-03-12T10:53:41.957Z,4.50
2023-03-12T10:56:09.927Z,4.40
2023-03-12T10:58:41.232Z,4.40
2023-03-12T11:01:20.683Z,4.40
2023-03-12T11:03:47.677Z,4.40
2023-03-12T11:06:26.156Z,4.60
2023-03-12T11:09:18.818Z,4.70
2023-03-12T11:11:47.221Z,4.80
2023-03-12T11:14:25.775Z,4.90
2023-03-12T11:16:54.441Z,5.00
2023-03-12T11:19:33.390Z,5.10
2023-03-12T11:22:06.515Z,5.20
2023-03-12T11:24:34.172Z,5.30
2023-03-12T11:27:13.312Z,5.20
2023-03-12T11:29:45.647Z,5.20
2023-03-12T11:32:20.345Z,5.30
2023-03-12T11:34:47.912Z,5.40
2023-03-12T11:37:40.524Z,5.40
2023-03-12T11:40:19.384Z,5.30
2023-03-12T11:42:51.880Z,5.30
2023-03-12T11:45:42.348Z,5.40
2023-03-12T11:48:25.630Z,5.40
2023-03-12T11:50:55.119Z,5.50
2023-03-12T11:53:31.093Z,5.70
2023-03-12T11:56:26.286Z,5.80
2023-03-12T11:59:18.432Z,5.80
2023-03-12T12:02:03.661Z,5.80
2023-03-12T12:04:41.295Z,5.80
2023-03-12T12:07:17.008Z,5.80
2023-03-12T12:09:53.049Z,5.90
2023-03-12T12:12:21.656Z,5.90
2023-03-12T12:15:06.484Z,5.80
2023-03-12T12:18:02.190Z,5.80
2023-03-12T12:20:37.442Z,5.90
2023-03-12T12:23:22.325Z,5.80
2023-03-12T12:26:25.121Z,6.00
2023-03-12T12:29:19.136Z,6.10
2023-03-12T12:31:56.312Z,6.20
2023-03-12T12:34:47.363Z,6.30
2023-03-12T12:37:19.985Z,6.30
2023-03-12T12:39:59.915Z,6.30
2023-03-12T12:42:32.163Z,6.40
2023-03-12T12:45:02.150Z,6.60
2023-03-12T12:47:42.908Z,6.70
2023-03-12T12:50:18.522Z,6.60
2023-03-12T12:52:48.318Z,6.50
2023-03-12T12:55:39.681Z,6.40
2023-03-12T12:58:17.088Z,6.40
2023-03-12T13:00:49.155Z,6.50
2023-03-12T13:03:24.899Z,6.50
2023-03-12T13:05:57.720Z,6.50
2023-03-12T13:08:39.897Z,6.50
2023-03-12T13:11:40.319Z,6.50
2023-03-12T13:14:09.969Z,6.50
2023-03-12T13:16:45.558Z,6.50
2023-03-12T13:19:15.138Z,6.40
2023-03-12T13:21:57.061Z,6.30
2023-03-12T13:24:48.982Z,6.20
2023-03-12T13:27:31.165Z,6.00
2023-03-12T13:29:58.474Z,5.90
2023-03-12T13:32:34.536Z,6.00
2023-03-12T13:35:27.356Z,6.10
2023-03-12T13:37:54.303Z,6.30
2023-03-12T13:40:30.106Z,6.30
2023-03-12T13:43:02.694Z,6.40
2023-03-12T13:45:30.001Z,6.30
2023-03-12T13:48:01.390Z,6.10
2023-03-12T13:50:30.607Z,6.10
2023-03-12T13:53:05.430Z,6.00
2023-03-12T13:55:34.914Z,6.00
2023-03-12T13:58:04.729Z,6.10
2023-03-12T14:00:36.890Z,6.10
2023-03-12T14:03:09.962Z,6.10
2023-03-12T14:05:57.557Z,6.10
2023-03-12T14:08:54.392Z,6.10
2023-03-12T14:11:42.802Z,6.00
2023-03-12T14:14:29.078Z,5.80
2023-03-12T14:17:02.373Z,5.60
2023-03-12T14:19:32.712Z,5.60
2023-03-12T14:22:06.637Z,5.50
2023-03-12T14:24:36.999Z,5.50
2023-03-12T14:27:11.212Z,5.50
2023-03-12T14:29:50.466Z,5.40
2023-03-12T14:32:23.647Z,5.20
2023-03-12T14:35:12.645Z,5.10
2023-03-12T14:38:11.966Z,5.10
2023-03-12T14:41:00.306Z,5.00
2023-03-12T14:43:33.029Z,4.90
2023-03-12T14:46:06.334Z,4.80
2023-03-12T14:48:36.389Z,4.80
2023-03-12T14:51:06.019Z,4.80
2023-03-12T14:53:35.659Z,4.80
2023-03-12T14:56:24.461Z,4.90
2023-03-12T14:58:51.988Z,4.90
2023-03-12T15:01:26.481Z,4.90
2023-03-12T15:03:58.503Z,4.90
2023-03-12T15:06:33.590Z,4.90
2023-03-12T15:09:03.037Z,5.00
2023-03-12T15:11:32.495Z,5.00
2023-03-12T15:14:07.060Z,5.00
2023-03-12T15:16:35.319Z,5.00
2023-03-12T15:19:03.028Z,4.90
2023-03-12T15:21:33.744Z,4.90
2023-03-12T15:24:00.989Z,4.90
2023-03-12T15:26:31.006Z,4.90
2023-03-12T15:29:04.448Z,4.90
2023-03-12T15:31:48.922Z,4.90
2023-03-12T15:34:30.897Z,4.80
2023-03-12T15:36:58.092Z,4.70
2023-03-12T15:39:33.846Z,4.50
2023-03-12T15:42:15.478Z,4.50
2023-03-12T15:44:49.091Z,4.40
2023-03-12T15:47:22.667Z,4.20
2023-03-12T15:50:23.244Z,4.20
2023-03-12T15:53:23.902Z,4.20
2023-03-12T15:56:04.746Z,4.10
2023-03-12T15:58:34.605Z,4.20
2023-03-12T16:01:18.473Z,4.20
2023-03-12T16:03:45.857Z,4.30
2023-03-12T16:06:15.909Z,4.20
2023-03-12T16:08:49.258Z,4.20
2023-03-12T16:11:22.724Z,4.10
2023-03-12T16:13:52.510Z,4.00
2023-03-12T16:16:19.579Z,3.90
2023-03-12T16:18:46.607Z,3.90
2023-03-12T16:21:13.658Z,3.90
2023-03-12T16:23:40.662Z,3.90
2023-03-12T16:26:07.667Z,3.90
2023-03-12T16:28:36.174Z,4.00
2023-03-12T16:31:03.271Z,4.00
2023-03-12T16:33:30.061Z,4.00
2023-03-12T16:35:57.089Z,4.00
2023-03-12T16:38:24.049Z,4.00
2023-03-12T16:40:51.788Z,4.00
2023-03-12T16:43:21.557Z,4.00
2023-03-12T16:45:49.682Z,3.90
2023-03-12T16:48:19.599Z,3.90
2023-03-12T16:50:55.758Z,3.90
2023-03-12T16:53:23.790Z,3.80
2023-03-12T16:55:59.877Z,3.70
2023-03-12T16:58:28.327Z,3.70
2023-03-12T17:00:56.781Z,3.50
2023-03-12T17:03:37.619Z,3.40
2023-03-12T17:06:07.032Z,3.40
2023-03-12T17:08:33.880Z,3.40
2023-03-12T17:11:01.068Z,3.40
2023-03-12T17:13:28.943Z,3.30
2023-03-12T17:15:56.666Z,3.30
2023-03-12T17:18:24.156Z,3.30
2023-03-12T17:20:51.009Z,3.30
2023-03-12T17:23:18.142Z,3.30
2023-03-12T17:25:45.242Z,3.40
2023-03-12T17:28:12.553Z,3.30
2023-03-12T17:30:39.387Z,3.40
2023-03-12T17:33:12.387Z,3.40
2023-03-12T17:35:40.120Z,3.40
2023-03-12T17:38:07.645Z,3.40
2023-03-12T17:40:35.112Z,3.40
2023-03-12T17:43:02.061Z,3.40
2023-03-12T17:45:28.936Z,3.40
2023-03-12T17:47:55.885Z,3.40
2023-03-12T17:50:22.840Z,3.40
2023-03-12T17:52:49.671Z,3.40
2023-03-12T17:55:16.573Z,3.40
2023-03-12T17:57:43.255Z,3.40
2023-03-12T18:00:10.850Z,3.40
2023-03-12T18:02:37.674Z,3.40
2023-03-12T18:05:04.972Z,3.30
2023-03-12T18:07:31.950Z,3.30
2023-03-12T18:09:58.777Z,3.20
2023-03-12T18:12:25.612Z,3.20
2023-03-12T18:14:52.373Z,3.20
2023-03-12T18:17:19.115Z,3.10
2023-03-12T18:19:45.806Z,3.10
2023-03-12T18:22:12.641Z,3.00
2023-03-12T18:24:39.584Z,3.10
2023-03-12T18:27:06.433Z,3.10
2023-03-12T18:29:33.346Z,3.10
2023-03-12T18:32:00.171Z,3.10
2023-03-12T18:34:26.958Z,3.10
2023-03-12T18:36:53.704Z,3.10
2023-03-12T18:39:20.593Z,3.10
2023-03-12T18:41:47.384Z,3.10
2023-03-12T18:44:14.221Z,3.10
2023-03-12T18:46:41.121Z,3.10
2023-03-12T18:49:09.179Z,3.10
2023-03-12T18:51:36.028Z,3.20
2023-03-12T18:54:02.936Z,3.10
2023-03-12T18:56:29.760Z,3.10
2023-03-12T18:58:56.680Z,3.10
2023-03-12T19:01:23.484Z,3.10
2023-03-12T19:03:50.271Z,3.10
2023-03-12T19:06:19.110Z,3.10
2023-03-12T19:11:39.054Z,3.10
2023-03-12T19:14:08.966Z,3.00
2023-03-12T19:16:35.887Z,3.10
2023-03-12T19:19:02.639Z,3.10
2023-03-12T19:21:29.416Z,3.10
2023-03-12T19:23:56.229Z,3.10
2023-03-12T19:26:25.556Z,3.10
2023-03-12T19:28:52.350Z,3.10
2023-03-12T19:31:19.180Z,3.10
2023-03-12T19:33:51.189Z,3.10
2023-03-12T19:36:21.279Z,3.10
2023-03-12T19:38:48.267Z,3.10
2023-03-12T19:41:15.390Z,3.10
2023-03-12T19:43:43.644Z,3.10
2023-03-12T19:46:13.536Z,3.00
2023-03-12T19:48:40.346Z,3.10
2023-03-12T19:51:09.151Z,3.10
2023-03-12T19:53:43.898Z,3.10
2023-03-12T19:56:10.992Z,3.20
2023-03-12T19:58:38.018Z,3.20
2023-03-12T20:01:07.919Z,3.20
2023-03-12T20:03:36.178Z,3.20
2023-03-12T20:06:03.104Z,3.20
2023-03-12T20:08:29.881Z,3.20
2023-03-12T20:11:11.603Z,3.20
2023-03-12T20:13:39.734Z,3.20
2023-03-12T20:16:08.988Z,3.20
2023-03-12T20:18:35.776Z,3.20
2023-03-12T20:21:02.523Z,3.20
2023-03-12T20:23:29.358Z,3.20
2023-03-12T20:25:56.707Z,3.20
2023-03-12T20:28:23.448Z,3.20
2023-03-12T20:30:50.614Z,3.20
2023-03-12T20:33:17.672Z,3.30
2023-03-12T20:35:50.184Z,3.30
2023-03-12T20:38:17.179Z,3.30
2023-03-12T20:40:47.048Z,3.40
2023-03-12T20:43:13.884Z,3.40
2023-03-12T20:45:40.783Z,3.50
2023-03-12T20:48:13.004Z,3.50
2023-03-12T20:50:40.187Z,3.60
2023-03-12T20:53:07.281Z,3.60
2023-03-12T20:55:40.345Z,3.70
2023-03-12T20:58:09.531Z,3.70
2023-03-12T21:00:39.343Z,3.70
2023-03-12T21:03:06.345Z,3.80
2023-03-12T21:05:36.312Z,3.80
2023-03-12T21:08:07.379Z,3.80
2023-03-12T21:10:38.325Z,3.80
2023-03-12T21:13:07.172Z,3.90
2023-03-12T21:15:37.437Z,3.90
2023-03-12T21:18:04.432Z,3.90
2023-03-12T21:20:37.950Z,3.90
2023-03-12T21:23:06.031Z,3.90
2023-03-12T21:25:34.321Z,3.90
2023-03-12T21:28:01.803Z,4.00
2023-03-12T21:30:36.700Z,4.00
2023-03-12T21:33:03.668Z,4.00
2023-03-12T21:35:30.572Z,4.00
2023-03-12T21:37:57.572Z,4.00
2023-03-12T21:40:25.711Z,4.00
2023-03-12T21:42:52.509Z,4.00
2023-03-12T21:45:19.280Z,4.00
2023-03-12T21:47:46.105Z,4.10
2023-03-12T21:50:12.877Z,4.10
2023-03-12T21:52:43.498Z,4.10
2023-03-12T21:55:16.603Z,4.10
2023-03-12T21:57:45.387Z,4.10
2023-03-12T22:00:13.505Z,4.10
2023-03-12T22:02:46.360Z,4.10
2023-03-12T22:05:15.433Z,4.20
2023-03-12T22:07:42.275Z,4.10
2023-03-12T22:10:09.832Z,4.20
2023-03-12T22:12:39.454Z,4.20
2023-03-12T22:15:07.710Z,4.20
2023-03-12T22:17:34.557Z,4.30
2023-03-12T22:20:01.314Z,4.30
2023-03-12T22:22:28.099Z,4.30
2023-03-12T22:24:54.881Z,4.40
2023-03-12T22:27:21.640Z,4.40
2023-03-12T22:29:48.408Z,4.40
2023-03-12T22:32:15.221Z,4.50
2023-03-12T22:34:41.987Z,4.50
2023-03-12T22:37:08.828Z,4.60
2023-03-12T22:39:35.749Z,4.60
2023-03-12T22:42:02.464Z,4.60
2023-03-12T22:44:29.174Z,4.70
2023-03-12T22:46:56.011Z,4.70
2023-03-12T22:49:22.832Z,4.70
2023-03-12T22:51:49.631Z,4.70
2023-03-12T22:54:16.421Z,4.70
2023-03-12T22:56:43.226Z,4.70
2023-03-12T22:59:10.766Z,4.70
2023-03-12T23:01:37.675Z,4.80
2023-03-12T23:04:04.659Z,4.80
2023-03-12T23:06:31.486Z,4.80
2023-03-12T23:08:58.905Z,4.80
2023-03-12T23:11:29.454Z,4.80
2023-03-12T23:13:56.465Z,4.80
2023-03-12T23:16:26.055Z,4.90
2023-03-12T23:18:53.589Z,4.80
2023-03-12T23:21:23.245Z,4.80
2023-03-12T23:23:52.818Z,4.80
2023-03-12T23:26:22.937Z,4.90
2023-03-12T23:28:49.832Z,4.90
2023-03-12T23:31:17.059Z,4.90
2023-03-12T23:33:44.414Z,4.90
2023-03-12T23:36:14.660Z,4.90
2023-03-12T23:38:44.910Z,4.90
2023-03-12T23:41:17.595Z,4.90
2023-03-12T23:43:44.804Z,4.90
2023-03-12T23:46:13.038Z,4.90
2023-03-12T23:48:40.573Z,4.90
2023-03-12T23:51:13.262Z,4.90
2023-03-12T23:53:42.047Z,4.90
2023-03-12T23:56:12.217Z,5.00
2023-03-12T23:58:39.150Z,5.00
